Time;durP1;ratioP1;P1;durP2;ratioP2;P2;SDS_P1;SDS_P2;PMS_P1;PMS_P2;Temp;Humidity;BMP_temperature;BMP_pressure;BME280_temperature;BME280_humidity;BME280_pressure;Samples;Min_cycle;Max_cycle;Signal;HPM_P1;HPM_P2
2024/01/14 00:00:41;;;;;;;11.00;6.37;;;;;;;;;;5043034;28;20258;-60
2024/01/14 00:03:08;;;;;;;9.33;6.10;;;;;;;;;;5034875;28;20329;-60
2024/01/14 00:05:35;;;;;;;13.83;6.70;;;;;;;;;;5031759;28;20743;-60
2024/01/14 00:08:02;;;;;;;15.00;6.97;;;;;;;;;;5041252;28;20215;-60
2024/01/14 00:10:29;;;;;;;13.70;6.83;;;;;;;;;;5029684;28;20700;-60
2024/01/14 00:12:56;;;;;;;10.63;6.53;;;;;;;;;;5026292;28;20631;-60
2024/01/14 00:15:24;;;;;;;11.63;5.53;;;;;;;;;;5034096;28;20215;-60
2024/01/14 00:17:52;;;;;;;11.30;6.23;;;;;;;;;;5031061;28;20212;-60
2024/01/14 00:20:19;;;;;;;9.20;5.07;;;;;;;;;;5034585;28;20206;-61
2024/01/14 00:22:47;;;;;;;11.10;5.63;;;;;;;;;;5046701;28;20254;-60
2024/01/14 00:25:14;;;;;;;12.63;6.93;;;;;;;;;;5031019;28;20242;-60
2024/01/14 00:27:41;;;;;;;13.03;6.67;;;;;;;;;;5033901;28;20213;-61
2024/01/14 00:30:08;;;;;;;11.83;6.00;;;;;;;;;;5050904;28;20240;-60
2024/01/14 00:32:37;;;;;;;13.50;6.63;;;;;;;;;;5050846;28;20219;-60
2024/01/14 00:35:04;;;;;;;14.93;6.13;;;;;;;;;;5050737;28;20221;-60
2024/01/14 00:37:31;;;;;;;11.97;6.67;;;;;;;;;;5048746;28;20966;-60
2024/01/14 00:39:58;;;;;;;15.60;7.17;;;;;;;;;;5035074;28;20236;-61
2024/01/14 00:42:28;;;;;;;13.60;6.37;;;;;;;;;;5039131;28;20215;-60
2024/01/14 00:44:57;;;;;;;13.23;6.50;;;;;;;;;;5048780;28;20213;-60
2024/01/14 00:47:30;;;;;;;13.23;6.33;;;;;;;;;;5037649;28;20239;-60
2024/01/14 00:49:58;;;;;;;13.53;7.23;;;;;;;;;;5030537;28;20467;-60
2024/01/14 00:52:25;;;;;;;14.63;6.53;;;;;;;;;;5031656;28;20301;-60
2024/01/14 00:54:52;;;;;;;13.53;6.43;;;;;;;;;;5033246;28;20207;-61
2024/01/14 00:57:19;;;;;;;14.70;6.67;;;;;;;;;;5037125;28;20227;-60
2024/01/14 00:59:46;;;;;;;12.20;6.47;;;;;;;;;;5035588;28;20254;-60
2024/01/14 01:02:14;;;;;;;14.93;7.13;;;;;;;;;;5038428;28;20238;-60
2024/01/14 01:04:41;;;;;;;12.30;6.03;;;;;;;;;;5024917;28;20209;-60
2024/01/14 01:07:11;;;;;;;12.70;7.03;;;;;;;;;;5029944;28;20207;-60
2024/01/14 01:09:38;;;;;;;16.30;7.00;;;;;;;;;;5031242;28;20242;-61
2024/01/14 01:12:05;;;;;;;13.67;5.90;;;;;;;;;;5039947;28;20215;-60
2024/01/14 01:14:32;;;;;;;13.23;6.90;;;;;;;;;;5029908;28;20225;-60
2024/01/14 01:16:59;;;;;;;13.00;6.70;;;;;;;;;;5029912;28;20215;-60
2024/01/14 01:19:27;;;;;;;12.90;6.73;;;;;;;;;;5030236;28;20211;-60
2024/01/14 01:21:56;;;;;;;12.70;7.10;;;;;;;;;;5037194;28;20633;-60
2024/01/14 01:24:25;;;;;;;12.47;6.57;;;;;;;;;;5029854;28;20211;-60
2024/01/14 01:26:52;;;;;;;11.90;6.43;;;;;;;;;;5029940;28;20225;-60
2024/01/14 01:29:19;;;;;;;15.03;6.97;;;;;;;;;;5029703;28;20669;-60
2024/01/14 01:31:46;;;;;;;15.20;6.70;;;;;;;;;;5033290;28;20294;-60
2024/01/14 01:34:13;;;;;;;11.67;7.03;;;;;;;;;;5033394;28;20235;-60
2024/01/14 01:36:41;;;;;;;14.80;7.23;;;;;;;;;;5040108;28;20221;-60
2024/01/14 01:39:08;;;;;;;12.67;6.33;;;;;;;;;;5032198;28;20298;-60
2024/01/14 01:41:36;;;;;;;14.60;7.40;;;;;;;;;;5041449;28;20224;-60
2024/01/14 01:44:04;;;;;;;13.97;6.83;;;;;;;;;;5030503;28;20707;-60
2024/01/14 01:46:35;;;;;;;15.37;7.83;;;;;;;;;;5029087;28;20212;-59
2024/01/14 01:49:02;;;;;;;18.03;7.63;;;;;;;;;;5045412;28;20218;-59
2024/01/14 01:51:30;;;;;;;18.60;7.70;;;;;;;;;;5049098;28;20266;-59
2024/01/14 01:53:57;;;;;;;17.97;7.97;;;;;;;;;;5045112;28;20677;-59
2024/01/14 01:56:25;;;;;;;14.67;7.40;;;;;;;;;;5030534;28;20233;-61
2024/01/14 01:58:53;;;;;;;14.63;7.63;;;;;;;;;;5031333;28;20223;-61
2024/01/14 02:01:21;;;;;;;16.13;7.93;;;;;;;;;;5031992;28;20236;-61
2024/01/14 02:03:49;;;;;;;17.53;7.23;;;;;;;;;;5028390;28;20249;-62
2024/01/14 02:06:17;;;;;;;15.53;7.53;;;;;;;;;;5041742;28;20683;-61
2024/01/14 02:08:44;;;;;;;20.20;8.17;;;;;;;;;;5044524;28;20219;-61
2024/01/14 02:11:11;;;;;;;18.90;7.57;;;;;;;;;;5035357;28;20230;-61
2024/01/14 02:13:38;;;;;;;15.47;6.93;;;;;;;;;;5036717;28;20214;-62
2024/01/14 02:16:06;;;;;;;13.97;6.40;;;;;;;;;;5038484;28;20207;-61
2024/01/14 02:18:33;;;;;;;18.20;7.33;;;;;;;;;;5043069;28;20238;-61
2024/01/14 02:21:00;;;;;;;13.87;6.80;;;;;;;;;;5038025;28;20767;-61
2024/01/14 02:23:30;;;;;;;12.60;7.00;;;;;;;;;;5028983;28;20699;-61
2024/01/14 02:25:58;;;;;;;17.07;7.97;;;;;;;;;;5029994;28;20212;-62
2024/01/14 02:28:26;;;;;;;16.83;7.83;;;;;;;;;;5040965;28;20263;-61
2024/01/14 02:30:54;;;;;;;15.50;7.83;;;;;;;;;;5043683;28;20225;-62
2024/01/14 02:33:21;;;;;;;17.53;7.20;;;;;;;;;;5037207;28;20215;-61
2024/01/14 02:35:48;;;;;;;7.47;3.73;;;;;;;;;;5028230;28;20218;-61
2024/01/14 02:38:15;;;;;;;21.20;8.20;;;;;;;;;;5042916;28;20206;-61
2024/01/14 02:40:42;;;;;;;17.57;7.53;;;;;;;;;;5030911;28;20248;-61
2024/01/14 02:43:11;;;;;;;16.00;7.50;;;;;;;;;;5045518;28;20222;-61
2024/01/14 02:45:38;;;;;;;18.70;7.37;;;;;;;;;;5046495;28;20212;-61
2024/01/14 02:48:05;;;;;;;16.10;6.37;;;;;;;;;;5029485;28;20877;-61
2024/01/14 02:50:33;;;;;;;17.97;8.07;;;;;;;;;;5034063;28;20691;-61
2024/01/14 02:56:04;;;;;;;12.80;6.50;;;;;;;;;;5027170;28;20214;-61
2024/01/14 02:58:32;;;;;;;20.70;7.83;;;;;;;;;;5024709;28;20258;-61
2024/01/14 03:00:59;;;;;;;14.47;6.40;;;;;;;;;;5029871;28;20242;-59
2024/01/14 03:03:26;;;;;;;17.03;7.27;;;;;;;;;;5035242;28;20241;-59
2024/01/14 03:05:53;;;;;;;16.77;7.93;;;;;;;;;;5028072;28;20209;-59
2024/01/14 03:08:20;;;;;;;19.50;8.67;;;;;;;;;;5028142;28;20216;-61
2024/01/14 03:10:47;;;;;;;15.93;7.30;;;;;;;;;;5029762;28;20225;-61
2024/01/14 03:13:15;;;;;;;18.07;8.03;;;;;;;;;;5038328;28;20221;-61
2024/01/14 03:15:44;;;;;;;18.10;7.93;;;;;;;;;;5045276;28;20213;-61
2024/01/14 03:18:12;;;;;;;12.70;6.53;;;;;;;;;;5042716;28;20207;-61
2024/01/14 03:20:39;;;;;;;14.93;5.97;;;;;;;;;;5029404;28;20216;-61
2024/01/14 03:23:06;;;;;;;14.50;7.00;;;;;;;;;;5045287;28;20265;-61
2024/01/14 03:31:42;;;;;;;17.57;8.03;;;;;;;;;;5017481;28;20242;-61
2024/01/14 03:34:09;;;;;;;19.53;8.70;;;;;;;;;;5019321;28;20235;-61
2024/01/14 03:36:36;;;;;;;19.50;8.43;;;;;;;;;;5038613;28;20225;-61
2024/01/14 03:39:03;;;;;;;18.20;8.10;;;;;;;;;;5048499;28;20674;-61
2024/01/14 03:41:31;;;;;;;20.33;8.30;;;;;;;;;;5040657;28;20668;-61
2024/01/14 03:43:58;;;;;;;18.30;8.07;;;;;;;;;;5028411;28;20211;-61
2024/01/14 03:46:25;;;;;;;16.73;7.83;;;;;;;;;;5036368;28;20724;-61
2024/01/14 03:48:53;;;;;;;16.27;7.30;;;;;;;;;;5034139;28;20286;-61
2024/01/14 03:51:20;;;;;;;21.37;8.13;;;;;;;;;;5037556;28;20289;-67
2024/01/14 03:53:47;;;;;;;19.10;7.13;;;;;;;;;;5040349;28;20218;-59
2024/01/14 03:56:14;;;;;;;25.23;8.70;;;;;;;;;;5038369;28;20214;-59
2024/01/14 03:58:41;;;;;;;20.20;8.73;;;;;;;;;;5031105;28;20230;-59
2024/01/14 04:07:23;;;;;;;19.90;7.43;;;;;;;;;;5038336;28;20277;-61
2024/01/14 04:09:50;;;;;;;16.50;7.03;;;;;;;;;;5042077;28;20212;-61
2024/01/14 04:12:17;;;;;;;15.30;7.57;;;;;;;;;;5050890;28;20254;-61
2024/01/14 04:14:45;;;;;;;18.57;7.40;;;;;;;;;;5034233;28;20271;-61
2024/01/14 04:20:16;;;;;;;15.57;6.60;;;;;;;;;;5035674;28;20259;-62
2024/01/14 04:22:44;;;;;;;14.53;7.00;;;;;;;;;;5039685;28;20207;-61
2024/01/14 04:25:11;;;;;;;16.37;7.53;;;;;;;;;;5049229;28;20262;-61
2024/01/14 04:30:42;;;;;;;15.87;7.13;;;;;;;;;;5041920;28;20585;-61
2024/01/14 04:33:09;;;;;;;15.37;7.13;;;;;;;;;;5036301;28;20244;-61
2024/01/14 04:35:36;;;;;;;13.13;5.93;;;;;;;;;;5028817;28;20212;-61
2024/01/14 04:38:04;;;;;;;15.53;7.00;;;;;;;;;;5030586;28;20210;-61
2024/01/14 04:40:31;;;;;;;18.13;8.37;;;;;;;;;;5030294;28;20205;-61
2024/01/14 04:42:58;;;;;;;18.20;7.30;;;;;;;;;;5031668;28;20196;-61
2024/01/14 04:45:25;;;;;;;14.60;7.00;;;;;;;;;;5026654;28;20212;-59
2024/01/14 04:47:52;;;;;;;16.00;6.90;;;;;;;;;;5030616;28;20219;-60
2024/01/14 04:50:19;;;;;;;17.27;7.23;;;;;;;;;;5041885;28;20674;-62
2024/01/14 04:52:46;;;;;;;20.63;7.63;;;;;;;;;;5034614;28;20208;-60
2024/01/14 04:55:15;;;;;;;15.63;7.10;;;;;;;;;;5048622;28;20209;-60
2024/01/14 04:57:42;;;;;;;15.67;7.33;;;;;;;;;;5035866;28;20235;-60
2024/01/14 05:00:10;;;;;;;18.00;7.50;;;;;;;;;;5036262;28;20214;-60
2024/01/14 05:02:37;;;;;;;17.93;7.57;;;;;;;;;;5038751;28;20213;-60
2024/01/14 05:05:04;;;;;;;15.77;7.17;;;;;;;;;;5032395;28;20250;-60
2024/01/14 05:07:31;;;;;;;13.60;6.87;;;;;;;;;;5029983;28;20658;-60
2024/01/14 05:09:59;;;;;;;16.80;7.10;;;;;;;;;;5041399;28;20211;-59
2024/01/14 05:22:04;;;;;;;17.57;6.13;;;;;;;;;;5037535;28;20194;-60
2024/01/14 05:24:33;;;;;;;13.97;6.50;;;;;;;;;;5047190;28;20629;-60
2024/01/14 05:27:00;;;;;;;17.23;6.97;;;;;;;;;;5044999;28;20204;-59
2024/01/14 05:29:27;;;;;;;17.57;7.27;;;;;;;;;;5033119;28;20231;-60
2024/01/14 05:31:54;;;;;;;11.80;5.47;;;;;;;;;;5029474;28;20243;-60
2024/01/14 05:34:49;;;;;;;16.53;6.67;;;;;;;;;;5033172;28;20220;-60
2024/01/14 05:58:29;;;;;;;17.30;7.77;;;;;;;;;;4992016;28;20284;-60
2024/01/14 06:03:56;;;;;;;20.77;7.80;;;;;;;;;;4987764;28;20274;-60
2024/01/14 06:06:23;;;;;;;24.90;9.17;;;;;;;;;;5004425;28;20726;-60
2024/01/14 06:08:50;;;;;;;22.60;8.93;;;;;;;;;;5047691;28;20811;-59
2024/01/14 06:11:18;;;;;;;21.43;9.63;;;;;;;;;;5047774;28;20224;-62
2024/01/14 06:16:57;;;;;;;24.10;9.47;;;;;;;;;;5028676;28;20199;-59
2024/01/14 06:22:24;;;;;;;17.87;7.50;;;;;;;;;;5032132;28;20234;-60
2024/01/14 06:27:56;;;;;;;26.90;11.67;;;;;;;;;;5026643;28;20567;-60
2024/01/14 06:30:23;;;;;;;24.73;10.27;;;;;;;;;;5028671;28;20212;-60
2024/01/14 06:32:50;;;;;;;28.37;11.67;;;;;;;;;;5030643;28;20223;-59
2024/01/14 06:35:17;;;;;;;30.97;11.67;;;;;;;;;;5042826;28;20196;-60
2024/01/14 06:37:44;;;;;;;26.67;11.80;;;;;;;;;;5028401;28;20266;-59
2024/01/14 06:40:11;;;;;;;35.27;11.40;;;;;;;;;;5028809;28;20251;-59
2024/01/14 06:42:38;;;;;;;34.10;12.63;;;;;;;;;;5028334;28;20693;-60
2024/01/14 06:45:08;;;;;;;32.47;12.33;;;;;;;;;;5043879;28;20238;-60
2024/01/14 06:47:35;;;;;;;29.43;11.20;;;;;;;;;;5029217;28;20211;-59
2024/01/14 06:50:02;;;;;;;18.13;7.53;;;;;;;;;;5029203;28;20200;-59
2024/01/14 06:52:29;;;;;;;34.17;12.60;;;;;;;;;;5033319;28;20227;-58
2024/01/14 06:54:56;;;;;;;24.97;10.20;;;;;;;;;;5037004;28;20239;-60
2024/01/14 06:57:23;;;;;;;29.97;10.50;;;;;;;;;;5029192;28;20227;-59
2024/01/14 06:59:50;;;;;;;33.30;11.90;;;;;;;;;;5037510;28;20215;-60
2024/01/14 07:02:19;;;;;;;30.77;11.10;;;;;;;;;;5027909;28;20200;-59
2024/01/14 07:04:46;;;;;;;31.10;11.40;;;;;;;;;;5029327;28;20593;-59
2024/01/14 07:07:13;;;;;;;28.23;11.00;;;;;;;;;;5029916;28;20228;-60
2024/01/14 07:09:40;;;;;;;33.53;11.87;;;;;;;;;;5038528;28;20208;-60
2024/01/14 07:12:07;;;;;;;27.37;11.50;;;;;;;;;;5033394;28;20233;-60
2024/01/14 07:14:34;;;;;;;30.23;10.23;;;;;;;;;;5027671;28;20211;-60
2024/01/14 07:17:01;;;;;;;30.70;11.77;;;;;;;;;;5027910;28;20204;-60
2024/01/14 07:19:30;;;;;;;32.90;12.50;;;;;;;;;;5028244;28;20228;-61
2024/01/14 07:21:57;;;;;;;33.23;12.07;;;;;;;;;;5031305;28;20819;-59
2024/01/14 07:24:24;;;;;;;32.53;10.87;;;;;;;;;;5033245;28;20205;-59
2024/01/14 07:26:51;;;;;;;29.07;11.57;;;;;;;;;;5021371;28;20235;-60
2024/01/14 07:29:18;;;;;;;38.03;11.20;;;;;;;;;;5027891;28;20231;-60
2024/01/14 07:31:45;;;;;;;29.00;11.57;;;;;;;;;;5019886;28;20231;-59
2024/01/14 07:34:12;;;;;;;30.20;10.83;;;;;;;;;;5030352;28;20211;-60
2024/01/14 07:36:40;;;;;;;26.87;10.77;;;;;;;;;;5028187;28;20212;-60
2024/01/14 07:39:08;;;;;;;30.87;11.47;;;;;;;;;;5039097;28;20215;-60
2024/01/14 07:41:35;;;;;;;32.00;11.40;;;;;;;;;;5028830;28;20254;-60
2024/01/14 07:44:02;;;;;;;29.60;10.73;;;;;;;;;;5027629;28;20213;-60
2024/01/14 07:46:29;;;;;;;32.07;11.70;;;;;;;;;;5027637;28;20212;-60
2024/01/14 07:48:56;;;;;;;32.23;10.83;;;;;;;;;;5027499;28;20216;-60
2024/01/14 07:51:23;;;;;;;33.67;13.97;;;;;;;;;;5027062;28;20259;-60
2024/01/14 07:53:51;;;;;;;31.77;11.30;;;;;;;;;;5027505;28;20216;-60
2024/01/14 07:56:20;;;;;;;25.23;10.07;;;;;;;;;;5046843;28;20218;-60
2024/01/14 07:58:47;;;;;;;30.73;11.40;;;;;;;;;;5047772;28;20656;-61
2024/01/14 08:01:14;;;;;;;23.70;9.93;;;;;;;;;;5040342;28;20212;-60
2024/01/14 08:03:41;;;;;;;29.10;10.47;;;;;;;;;;5025453;28;20221;-59
2024/01/14 08:06:08;;;;;;;32.63;11.27;;;;;;;;;;5026106;28;20202;-61
2024/01/14 08:08:35;;;;;;;25.50;9.43;;;;;;;;;;5027530;28;20242;-60
2024/01/14 08:11:03;;;;;;;24.83;9.23;;;;;;;;;;5027277;28;20234;-60
2024/01/14 08:13:30;;;;;;;31.07;11.00;;;;;;;;;;5027559;28;20209;-60
2024/01/14 08:15:57;;;;;;;31.37;10.80;;;;;;;;;;5027044;28;20679;-59
2024/01/14 08:18:24;;;;;;;28.20;10.27;;;;;;;;;;5042194;28;20222;-60
2024/01/14 08:20:51;;;;;;;28.93;10.70;;;;;;;;;;5030236;28;20212;-60
2024/01/14 08:23:19;;;;;;;27.47;10.67;;;;;;;;;;5038026;28;20290;-59
2024/01/14 08:25:46;;;;;;;32.50;11.37;;;;;;;;;;5031718;28;20294;-60
2024/01/14 08:28:15;;;;;;;26.57;9.43;;;;;;;;;;5040148;28;20207;-60
2024/01/14 08:30:42;;;;;;;27.50;10.20;;;;;;;;;;5035502;28;20262;-60
2024/01/14 08:33:09;;;;;;;27.10;10.40;;;;;;;;;;5030621;28;20231;-59
2024/01/14 08:35:36;;;;;;;25.10;9.77;;;;;;;;;;5030016;28;20298;-59
2024/01/14 08:38:03;;;;;;;33.17;10.57;;;;;;;;;;5031488;28;20208;-60
2024/01/14 08:40:30;;;;;;;26.13;9.93;;;;;;;;;;5030449;28;20209;-59
2024/01/14 08:42:57;;;;;;;26.03;9.83;;;;;;;;;;5030650;28;20220;-60
2024/01/14 08:45:25;;;;;;;34.27;12.53;;;;;;;;;;5030272;28;20208;-60
2024/01/14 08:47:52;;;;;;;28.40;11.37;;;;;;;;;;5030856;28;20211;-60
2024/01/14 08:50:20;;;;;;;26.43;9.63;;;;;;;;;;5034143;28;20658;-59
2024/01/14 08:52:47;;;;;;;24.67;9.20;;;;;;;;;;5041368;28;20336;-60
2024/01/14 08:55:14;;;;;;;24.83;9.10;;;;;;;;;;5030448;28;20208;-60
2024/01/14 08:57:41;;;;;;;28.10;10.17;;;;;;;;;;5030159;28;20234;-60
2024/01/14 09:00:09;;;;;;;21.93;9.17;;;;;;;;;;5039035;28;20209;-60
2024/01/14 09:02:38;;;;;;;26.57;9.73;;;;;;;;;;5029902;28;20286;-60
2024/01/14 09:05:05;;;;;;;25.90;9.67;;;;;;;;;;5029908;28;20215;-60
2024/01/14 09:07:33;;;;;;;26.00;9.90;;;;;;;;;;5029619;28;20232;-60
2024/01/14 09:10:00;;;;;;;25.30;9.50;;;;;;;;;;5036659;28;20204;-60
2024/01/14 09:12:27;;;;;;;26.70;8.57;;;;;;;;;;5030044;28;20232;-60
2024/01/14 09:14:54;;;;;;;30.87;10.40;;;;;;;;;;5029889;28;20220;-60
2024/01/14 09:17:21;;;;;;;26.50;9.33;;;;;;;;;;5028727;28;20208;-60
2024/01/14 09:19:49;;;;;;;23.00;9.23;;;;;;;;;;5033194;28;20282;-60
2024/01/14 09:22:16;;;;;;;29.97;10.10;;;;;;;;;;5029755;28;20216;-59
2024/01/14 09:24:45;;;;;;;28.30;11.80;;;;;;;;;;5032056;28;20200;-59
2024/01/14 09:27:12;;;;;;;28.50;10.27;;;;;;;;;;5027944;28;20565;-60
2024/01/14 09:29:39;;;;;;;28.40;10.73;;;;;;;;;;5028824;28;20212;-60
2024/01/14 09:32:07;;;;;;;26.47;9.40;;;;;;;;;;5033437;28;20243;-60
2024/01/14 09:34:34;;;;;;;25.43;9.40;;;;;;;;;;5038049;28;20679;-60
2024/01/14 09:37:02;;;;;;;24.43;9.73;;;;;;;;;;5028916;28;20239;-59
2024/01/14 09:39:29;;;;;;;19.77;8.47;;;;;;;;;;5028801;28;20320;-60
2024/01/14 09:42:04;;;;;;;28.13;9.27;;;;;;;;;;5044329;28;20213;-60
2024/01/14 09:44:31;;;;;;;25.03;7.97;;;;;;;;;;5044278;28;20728;-59
2024/01/14 09:46:58;;;;;;;26.87;10.40;;;;;;;;;;5029272;28;20223;-60
2024/01/14 09:49:25;;;;;;;25.83;10.47;;;;;;;;;;5029442;28;20208;-60
2024/01/14 09:51:52;;;;;;;28.27;10.30;;;;;;;;;;5028196;28;20248;-60
2024/01/14 09:54:20;;;;;;;25.50;9.20;;;;;;;;;;5026976;28;20835;-60
2024/01/14 09:56:49;;;;;;;29.00;10.33;;;;;;;;;;5026819;28;20226;-60
2024/01/14 09:59:19;;;;;;;25.77;9.87;;;;;;;;;;5028122;28;20312;-60
2024/01/14 10:01:46;;;;;;;25.43;10.03;;;;;;;;;;5028093;28;20305;-59
2024/01/14 10:04:16;;;;;;;23.13;9.80;;;;;;;;;;5037617;28;20217;-61
2024/01/14 10:06:43;;;;;;;25.67;10.60;;;;;;;;;;5028112;28;20228;-61
2024/01/14 10:09:10;;;;;;;25.97;9.43;;;;;;;;;;5028764;28;20854;-61
2024/01/14 10:11:39;;;;;;;24.63;9.93;;;;;;;;;;5028838;28;20212;-61
2024/01/14 10:14:06;;;;;;;26.00;10.07;;;;;;;;;;5031658;28;20245;-61
2024/01/14 10:16:37;;;;;;;23.27;8.97;;;;;;;;;;5028297;28;20209;-61
2024/01/14 10:19:06;;;;;;;23.27;8.90;;;;;;;;;;5028532;28;20217;-70
2024/01/14 10:21:33;;;;;;;36.47;14.73;;;;;;;;;;5027014;28;20564;-63
2024/01/14 10:24:01;;;;;;;36.63;13.87;;;;;;;;;;5028742;28;20803;-64
2024/01/14 10:26:29;;;;;;;30.20;12.07;;;;;;;;;;5027270;28;20211;-62
2024/01/14 10:29:02;;;;;;;24.20;12.00;;;;;;;;;;5027513;28;20214;-61
2024/01/14 10:31:31;;;;;;;28.87;10.60;;;;;;;;;;5026762;28;20211;-62
2024/01/14 10:33:59;;;;;;;28.43;11.07;;;;;;;;;;5046015;28;20269;-63
2024/01/14 10:36:28;;;;;;;26.83;9.90;;;;;;;;;;5030256;28;20205;-60
2024/01/14 10:38:57;;;;;;;22.00;9.20;;;;;;;;;;5028782;28;20340;-60
2024/01/14 10:41:24;;;;;;;26.90;9.93;;;;;;;;;;5042974;28;20207;-62
2024/01/14 10:43:51;;;;;;;44.33;16.75;;;;;;;;;;5041585;28;21183;-61
2024/01/14 10:46:20;;;;;;;34.77;12.67;;;;;;;;;;5027976;28;20204;-61
2024/01/14 10:48:50;;;;;;;24.93;10.03;;;;;;;;;;5033021;28;20199;-61
2024/01/14 10:51:18;;;;;;;24.07;8.93;;;;;;;;;;5032456;28;20291;-60
2024/01/14 10:53:49;;;;;;;24.07;10.30;;;;;;;;;;5029531;28;20262;-62
2024/01/14 10:56:17;;;;;;;26.90;9.43;;;;;;;;;;5021236;28;20236;-62
2024/01/14 10:58:45;;;;;;;28.17;9.53;;;;;;;;;;5023417;28;20231;-64
2024/01/14 11:01:13;;;;;;;30.43;11.37;;;;;;;;;;5027765;28;20211;-61
2024/01/14 11:03:42;;;;;;;23.80;10.13;;;;;;;;;;5027595;28;20208;-63
2024/01/14 11:06:10;;;;;;;30.60;11.40;;;;;;;;;;5027797;28;20212;-61
2024/01/14 11:08:38;;;;;;;31.23;11.00;;;;;;;;;;5029015;28;20266;-61
2024/01/14 11:11:05;;;;;;;27.37;9.70;;;;;;;;;;5028743;28;20685;-61
2024/01/14 11:13:34;;;;;;;19.77;9.17;;;;;;;;;;5020000;28;20291;-60
2024/01/14 11:16:05;;;;;;;29.10;10.40;;;;;;;;;;5026956;28;20272;-60
2024/01/14 11:18:34;;;;;;;26.07;9.53;;;;;;;;;;5028420;28;20219;-60
2024/01/14 11:21:09;;;;;;;31.73;10.57;;;;;;;;;;5028473;28;20212;-62
2024/01/14 11:23:36;;;;;;;31.57;10.57;;;;;;;;;;5007712;28;20692;-61
2024/01/14 11:26:03;;;;;;;26.63;9.37;;;;;;;;;;5021709;28;20204;-60
2024/01/14 11:28:30;;;;;;;30.03;9.70;;;;;;;;;;5027451;28;20215;-61
2024/01/14 11:30:59;;;;;;;24.07;9.23;;;;;;;;;;5031390;28;20259;-62
2024/01/14 11:33:31;;;;;;;26.47;9.87;;;;;;;;;;5034396;28;20675;-62
2024/01/14 11:35:58;;;;;;;26.17;10.27;;;;;;;;;;5026707;28;20228;-59
2024/01/14 11:38:39;;;;;;;22.50;8.53;;;;;;;;;;5027421;28;20213;-60
2024/01/14 11:41:25;;;;;;;23.37;8.90;;;;;;;;;;5032488;28;20205;-60
2024/01/14 11:43:53;;;;;;;24.03;9.23;;;;;;;;;;5029258;28;20684;-59
2024/01/14 11:46:39;;;;;;;25.07;9.60;;;;;;;;;;5026327;28;20206;-60
2024/01/14 11:49:09;;;;;;;18.60;7.87;;;;;;;;;;5015227;28;20306;-59
2024/01/14 11:51:39;;;;;;;24.80;9.73;;;;;;;;;;5027136;28;20356;-59
2024/01/14 11:54:09;;;;;;;27.53;9.43;;;;;;;;;;5026518;28;20224;-61
2024/01/14 11:56:36;;;;;;;20.90;8.93;;;;;;;;;;5028062;28;20220;-60
2024/01/14 11:59:07;;;;;;;17.13;7.33;;;;;;;;;;5027130;28;20256;-60
2024/01/14 12:01:34;;;;;;;19.03;8.67;;;;;;;;;;5029651;28;20206;-59
2024/01/14 12:04:02;;;;;;;21.87;8.77;;;;;;;;;;5033614;28;20294;-61
2024/01/14 12:06:29;;;;;;;24.33;9.10;;;;;;;;;;5030629;28;20261;-60
2024/01/14 12:09:01;;;;;;;22.50;8.90;;;;;;;;;;5030775;28;20218;-59
2024/01/14 12:11:30;;;;;;;22.73;9.67;;;;;;;;;;5031361;28;20571;-59
2024/01/14 12:13:57;;;;;;;15.60;8.37;;;;;;;;;;5030636;28;20235;-60
2024/01/14 12:16:24;;;;;;;21.27;8.43;;;;;;;;;;5030844;28;20215;-62
2024/01/14 12:18:51;;;;;;;24.23;9.53;;;;;;;;;;5043338;28;20213;-60
2024/01/14 12:21:18;;;;;;;27.40;9.30;;;;;;;;;;5031969;28;20327;-60
2024/01/14 12:23:46;;;;;;;24.97;9.77;;;;;;;;;;5032932;28;20203;-59
2024/01/14 12:26:13;;;;;;;20.83;7.67;;;;;;;;;;5027219;28;20688;-60
2024/01/14 12:28:42;;;;;;;18.83;8.33;;;;;;;;;;5029128;28;20222;-59
2024/01/14 12:31:09;;;;;;;19.60;8.57;;;;;;;;;;5035846;28;20270;-59
2024/01/14 12:33:36;;;;;;;19.07;7.67;;;;;;;;;;5030039;28;20268;-60
2024/01/14 12:36:03;;;;;;;23.17;8.00;;;;;;;;;;5034591;28;20238;-60
2024/01/14 12:38:31;;;;;;;17.07;8.40;;;;;;;;;;5028458;28;20214;-62
2024/01/14 12:40:58;;;;;;;21.40;8.00;;;;;;;;;;5018855;28;20217;-60
2024/01/14 12:43:25;;;;;;;20.40;8.07;;;;;;;;;;5029560;28;20209;-60
2024/01/14 12:45:54;;;;;;;21.93;8.20;;;;;;;;;;5030174;28;20700;-60
2024/01/14 12:48:22;;;;;;;19.47;8.20;;;;;;;;;;5023665;28;20211;-61
2024/01/14 12:50:49;;;;;;;22.23;7.67;;;;;;;;;;5031675;28;20233;-63
2024/01/14 12:53:16;;;;;;;21.60;8.43;;;;;;;;;;5039537;28;20229;-59
2024/01/14 12:55:44;;;;;;;15.40;7.23;;;;;;;;;;5031051;28;20221;-62
2024/01/14 12:58:11;;;;;;;24.63;8.13;;;;;;;;;;5030349;28;20229;-61
2024/01/14 13:00:39;;;;;;;20.43;8.17;;;;;;;;;;5023219;28;20206;-61
2024/01/14 13:03:08;;;;;;;21.60;8.30;;;;;;;;;;5033531;28;20656;-61
2024/01/14 13:05:35;;;;;;;18.80;7.83;;;;;;;;;;5049083;28;20263;-61
2024/01/14 13:08:04;;;;;;;18.83;7.37;;;;;;;;;;5030846;28;20667;-60
2024/01/14 13:10:31;;;;;;;23.80;8.03;;;;;;;;;;5029487;28;21010;-60
2024/01/14 13:12:58;;;;;;;17.40;7.90;;;;;;;;;;5030067;28;20236;-61
2024/01/14 13:15:25;;;;;;;22.47;7.93;;;;;;;;;;5029543;28;20219;-61
2024/01/14 13:17:53;;;;;;;17.73;7.73;;;;;;;;;;5029258;28;20204;-61
2024/01/14 13:20:22;;;;;;;16.63;7.73;;;;;;;;;;5029914;28;20235;-61
2024/01/14 13:22:49;;;;;;;18.50;8.07;;;;;;;;;;5029327;28;20216;-61
2024/01/14 13:25:16;;;;;;;18.63;8.30;;;;;;;;;;5029436;28;20204;-61
2024/01/14 13:27:44;;;;;;;11.63;3.83;;;;;;;;;;5029317;28;20210;-61
2024/01/14 13:30:12;;;;;;;21.77;8.87;;;;;;;;;;5043223;28;20694;-61
2024/01/14 13:32:39;;;;;;;20.03;8.53;;;;;;;;;;5029243;28;20264;-61
2024/01/14 13:35:07;;;;;;;21.70;9.67;;;;;;;;;;5022327;28;20209;-61
2024/01/14 13:37:36;;;;;;;19.93;8.93;;;;;;;;;;5023576;28;20704;-62
2024/01/14 13:40:04;;;;;;;25.77;8.63;;;;;;;;;;5034447;28;20209;-62
2024/01/14 13:42:31;;;;;;;15.43;6.40;;;;;;;;;;5034693;28;20215;-62
2024/01/14 13:44:58;;;;;;;20.07;7.87;;;;;;;;;;5028451;28;20690;-61
2024/01/14 13:47:25;;;;;;;19.53;7.13;;;;;;;;;;5029098;28;20204;-61
2024/01/14 13:49:52;;;;;;;17.23;7.73;;;;;;;;;;5033531;28;20662;-61
2024/01/14 13:52:19;;;;;;;16.53;7.70;;;;;;;;;;5031635;28;20214;-61
2024/01/14 13:54:48;;;;;;;16.47;7.53;;;;;;;;;;5027637;28;20287;-61
2024/01/14 13:57:15;;;;;;;18.33;7.40;;;;;;;;;;5028674;28;20441;-61
2024/01/14 13:59:42;;;;;;;17.10;8.27;;;;;;;;;;5026657;28;20205;-61
2024/01/14 14:02:09;;;;;;;18.03;7.67;;;;;;;;;;5028490;28;20277;-63
2024/01/14 14:04:36;;;;;;;15.53;7.40;;;;;;;;;;5029079;28;20206;-60
2024/01/14 14:07:03;;;;;;;18.27;7.90;;;;;;;;;;5028613;28;20262;-61
2024/01/14 14:09:30;;;;;;;18.93;7.23;;;;;;;;;;5028986;28;20209;-63
2024/01/14 14:11:58;;;;;;;16.90;7.17;;;;;;;;;;5028812;28;20555;-61
2024/01/14 14:14:25;;;;;;;18.90;7.20;;;;;;;;;;5028053;28;20254;-61
2024/01/14 14:16:52;;;;;;;18.10;7.40;;;;;;;;;;5028838;28;20212;-63
2024/01/14 14:19:20;;;;;;;20.43;6.70;;;;;;;;;;5028724;28;20216;-61
2024/01/14 14:21:48;;;;;;;16.40;6.90;;;;;;;;;;5032865;28;20823;-64
2024/01/14 14:24:15;;;;;;;13.67;6.97;;;;;;;;;;5030588;28;20195;-61
2024/01/14 14:26:42;;;;;;;18.47;6.83;;;;;;;;;;5029136;28;20200;-61
2024/01/14 14:29:11;;;;;;;20.30;7.63;;;;;;;;;;5027775;28;20680;-61
2024/01/14 14:31:38;;;;;;;17.47;7.00;;;;;;;;;;5027783;28;20219;-61
2024/01/14 14:34:05;;;;;;;15.73;6.97;;;;;;;;;;5031193;28;20232;-61
2024/01/14 14:36:32;;;;;;;13.87;6.37;;;;;;;;;;5028542;28;20208;-62
2024/01/14 14:38:59;;;;;;;14.97;5.83;;;;;;;;;;5027859;28;20237;-61
2024/01/14 14:41:26;;;;;;;15.77;7.20;;;;;;;;;;5028280;28;20293;-61
2024/01/14 14:43:53;;;;;;;13.07;6.30;;;;;;;;;;5033145;28;20209;-61
2024/01/14 14:46:22;;;;;;;13.60;6.37;;;;;;;;;;5027984;28;20689;-61
2024/01/14 14:48:49;;;;;;;16.23;7.43;;;;;;;;;;5027264;28;20203;-62
2024/01/14 14:51:16;;;;;;;16.87;7.00;;;;;;;;;;5027684;28;20292;-61
2024/01/14 14:53:43;;;;;;;15.33;6.03;;;;;;;;;;5036703;28;20225;-64
2024/01/14 14:56:10;;;;;;;11.60;5.30;;;;;;;;;;5027402;28;20217;-62
2024/01/14 14:58:37;;;;;;;18.27;6.33;;;;;;;;;;5027580;28;20238;-63
2024/01/14 15:01:04;;;;;;;14.57;6.57;;;;;;;;;;5025469;28;20204;-62
2024/01/14 15:03:36;;;;;;;13.63;6.67;;;;;;;;;;5032787;28;20239;-62
2024/01/14 15:06:03;;;;;;;15.43;6.77;;;;;;;;;;5027307;28;20200;-63
2024/01/14 15:08:30;;;;;;;20.10;7.60;;;;;;;;;;5026921;28;20914;-62
2024/01/14 15:10:57;;;;;;;14.20;6.10;;;;;;;;;;5028384;28;20208;-62
2024/01/14 15:13:24;;;;;;;11.00;6.17;;;;;;;;;;5028229;28;20208;-63
2024/01/14 15:15:51;;;;;;;17.52;8.95;;;;;;;;;;5026326;28;20453;-63
2024/01/14 15:18:19;;;;;;;13.10;6.27;;;;;;;;;;5036246;28;20239;-63
2024/01/14 15:20:47;;;;;;;16.97;6.87;;;;;;;;;;5024058;28;20209;-63
2024/01/14 15:23:14;;;;;;;11.30;5.73;;;;;;;;;;5024318;28;20204;-63
2024/01/14 15:25:41;;;;;;;15.50;6.07;;;;;;;;;;5024263;28;20214;-63
2024/01/14 15:28:10;;;;;;;12.57;5.57;;;;;;;;;;5024866;28;20704;-63
2024/01/14 15:30:37;;;;;;;12.73;5.90;;;;;;;;;;5024386;28;20295;-62
2024/01/14 15:33:04;;;;;;;17.13;6.50;;;;;;;;;;5025514;28;20217;-62